San Pablo, Philippines
Current Conditions -  °F | °C
As of 2:00 AM on Saturday 29 Nov 2014 (Local Time) from RPLL Reporting Station
Rain Showers Rain Showers  
Wind Chill: 81°   Ceiling: 10000
Heat Index: 87°   Visibility: 6mi
Dew Point: 77°   Wind: 7mph
Humidity: 89%   Direction: 130°SE
Pressure: 29.83"   Gusts: NA
Location:  14.07°N, 121.33°E
Report Text: RPLL 281800Z 13006KT 090V180 9999 -SHRA SCT025 OVC100 27/25 Q1010 TEMPO 9000 -RA RMK A2983
Loading
Personal Weather Stations






























Interactive Weather Map New forecast layout! Learn more

10-Day Weather Forecast

Advertisements
Track Severe Weather on mobile